Time;durP1;ratioP1;P1;durP2;ratioP2;P2;SDS_P1;SDS_P2;PMS_P1;PMS_P2;Temp;Humidity;BMP_temperature;BMP_pressure;BME280_temperature;BME280_humidity;BME280_pressure;Samples;Min_cycle;Max_cycle;Signal;HPM_P1;HPM_P2
2022/09/01 00:00:50;;;;;;;;;;;20.20;70.10;;;;;;5045591;28;83497;-45
2022/09/01 00:03:17;;;;;;;;;;;20.20;70.10;;;;;;5046105;28;82056;-46
2022/09/01 00:05:45;;;;;;;;;;;20.20;70.00;;;;;;5045173;27;82969;-45
2022/09/01 00:08:11;;;;;;;;;;;20.10;70.00;;;;;;5045862;28;82099;-43
2022/09/01 00:10:37;;;;;;;;;;;20.10;69.90;;;;;;5046224;28;82196;-43
2022/09/01 00:13:05;;;;;;;;;;;20.10;70.00;;;;;;5045958;28;82173;-44
2022/09/01 00:15:32;;;;;;;;;;;20.10;70.00;;;;;;5048424;28;83043;-44
2022/09/01 00:17:57;;;;;;;;;;;20.10;70.00;;;;;;5046248;27;83276;-43
2022/09/01 00:20:23;;;;;;;;;;;20.10;70.00;;;;;;5045357;28;84757;-46
2022/09/01 00:22:48;;;;;;;;;;;20.10;70.00;;;;;;5046322;28;81333;-43
2022/09/01 00:25:17;;;;;;;;;;;20.10;70.00;;;;;;5045256;27;83207;-46
2022/09/01 00:27:43;;;;;;;;;;;20.10;70.00;;;;;;5048488;27;84266;-46
2022/09/01 00:30:09;;;;;;;;;;;20.00;69.90;;;;;;5048088;28;83090;-46
2022/09/01 00:32:34;;;;;;;;;;;20.10;70.00;;;;;;5049241;28;83304;-44
2022/09/01 00:35:00;;;;;;;;;;;20.00;69.90;;;;;;5048862;28;83159;-44
2022/09/01 00:37:25;;;;;;;;;;;20.00;69.90;;;;;;5051637;28;82074;-45
2022/09/01 00:39:51;;;;;;;;;;;20.00;69.80;;;;;;5049145;28;83256;-48
2022/09/01 00:42:17;;;;;;;;;;;20.00;69.90;;;;;;5049005;28;82047;-46
2022/09/01 00:44:42;;;;;;;;;;;20.00;69.90;;;;;;5049012;27;84234;-45
2022/09/01 00:47:08;;;;;;;;;;;20.00;69.90;;;;;;5049388;28;82290;-46
2022/09/01 00:49:36;;;;;;;;;;;20.00;69.90;;;;;;5048481;28;82131;-46
2022/09/01 00:52:04;;;;;;;;;;;20.00;69.90;;;;;;5048848;28;81970;-44
2022/09/01 00:54:32;;;;;;;;;;;19.90;69.80;;;;;;5048151;28;83965;-43
2022/09/01 00:56:58;;;;;;;;;;;19.90;70.00;;;;;;5049017;28;82148;-43
2022/09/01 00:59:25;;;;;;;;;;;19.90;69.90;;;;;;5051355;27;83826;-43
2022/09/01 01:01:51;;;;;;;;;;;19.90;69.80;;;;;;5048720;28;82138;-45
2022/09/01 01:04:16;;;;;;;;;;;19.90;69.80;;;;;;5048452;27;82340;-44
2022/09/01 01:06:44;;;;;;;;;;;19.90;69.90;;;;;;5048560;28;82064;-43
2022/09/01 01:09:10;;;;;;;;;;;19.90;69.90;;;;;;5048541;28;82041;-45
2022/09/01 01:11:36;;;;;;;;;;;19.90;70.40;;;;;;5049076;27;82338;-43
2022/09/01 01:14:10;;;;;;;;;;;19.90;69.80;;;;;;5048314;28;84312;-45
2022/09/01 01:16:39;;;;;;;;;;;19.80;69.90;;;;;;5048604;28;83112;-45
2022/09/01 01:19:05;;;;;;;;;;;19.80;69.90;;;;;;5047954;27;82897;-46
2022/09/01 01:24:33;;;;;;;;;;;19.80;69.70;;;;;;5048609;28;82007;-48
2022/09/01 01:27:02;;;;;;;;;;;19.90;69.70;;;;;;5047814;28;84424;-44
2022/09/01 01:29:32;;;;;;;;;;;19.80;69.70;;;;;;5048152;28;81920;-44
2022/09/01 01:31:57;;;;;;;;;;;19.80;69.80;;;;;;5048436;27;82569;-44
2022/09/01 01:34:23;;;;;;;;;;;19.80;69.70;;;;;;5048182;28;83226;-46
2022/09/01 01:36:49;;;;;;;;;;;19.80;69.80;;;;;;5048760;28;81218;-45
2022/09/01 01:39:16;;;;;;;;;;;19.70;69.80;;;;;;5047546;27;83019;-47
2022/09/01 01:41:44;;;;;;;;;;;19.70;69.70;;;;;;5050858;28;82289;-45
2022/09/01 01:44:11;;;;;;;;;;;19.70;69.70;;;;;;5047469;27;83815;-46
2022/09/01 01:46:41;;;;;;;;;;;19.70;69.80;;;;;;5047716;28;83549;-46
2022/09/01 01:49:07;;;;;;;;;;;19.70;69.70;;;;;;5047723;28;82042;-44
2022/09/01 01:51:33;;;;;;;;;;;19.70;69.70;;;;;;5048131;27;82915;-44
2022/09/01 01:54:04;;;;;;;;;;;19.70;69.70;;;;;;5047834;28;84439;-43
2022/09/01 01:56:31;;;;;;;;;;;19.70;69.70;;;;;;5047751;28;81724;-43
2022/09/01 01:58:57;;;;;;;;;;;19.70;69.70;;;;;;5047766;27;84418;-44
2022/09/01 02:01:24;;;;;;;;;;;19.70;69.70;;;;;;5048228;28;81429;-45
2022/09/01 02:03:51;;;;;;;;;;;19.70;69.70;;;;;;5050692;28;82347;-44
2022/09/01 02:06:19;;;;;;;;;;;19.70;69.60;;;;;;5047442;28;82220;-44
2022/09/01 02:08:45;;;;;;;;;;;19.60;69.60;;;;;;5046884;28;82917;-45
2022/09/01 02:11:12;;;;;;;;;;;19.60;69.60;;;;;;5047600;28;83496;-45
2022/09/01 02:13:37;;;;;;;;;;;19.60;69.60;;;;;;5047603;28;84483;-45
2022/09/01 02:16:06;;;;;;;;;;;19.60;69.60;;;;;;5047947;28;82021;-44
2022/09/01 02:18:36;;;;;;;;;;;19.60;69.70;;;;;;5047709;28;84038;-43
2022/09/01 02:21:08;;;;;;;;;;;19.50;69.70;;;;;;5047241;28;82893;-48
2022/09/01 02:23:34;;;;;;;;;;;19.50;70.40;;;;;;5047289;28;81914;-46
2022/09/01 02:26:01;;;;;;;;;;;19.60;69.70;;;;;;5050440;27;81561;-44
2022/09/01 02:28:30;;;;;;;;;;;19.50;69.60;;;;;;5047552;28;82049;-44
2022/09/01 02:30:56;;;;;;;;;;;19.50;69.60;;;;;;5047168;27;82282;-46
2022/09/01 02:33:22;;;;;;;;;;;19.50;69.60;;;;;;5046669;28;83910;-46
2022/09/01 02:35:49;;;;;;;;;;;19.50;69.70;;;;;;5047272;28;82062;-47
2022/09/01 02:38:16;;;;;;;;;;;19.50;69.70;;;;;;5047271;28;81970;-46
2022/09/01 02:40:45;;;;;;;;;;;19.50;69.60;;;;;;5046766;28;84297;-43
2022/09/01 02:43:12;;;;;;;;;;;19.40;69.60;;;;;;5047047;28;81934;-46
2022/09/01 02:45:37;;;;;;;;;;;19.50;69.60;;;;;;5046899;27;84387;-45
2022/09/01 02:48:09;;;;;;;;;;;19.40;69.50;;;;;;5049584;28;82937;-46
2022/09/01 02:50:37;;;;;;;;;;;19.50;69.70;;;;;;5046614;27;82970;-46
2022/09/01 02:53:08;;;;;;;;;;;19.40;69.60;;;;;;5046853;28;82863;-47
2022/09/01 02:55:37;;;;;;;;;;;19.40;70.10;;;;;;5046879;28;82065;-44
2022/09/01 02:58:03;;;;;;;;;;;19.40;69.50;;;;;;5046300;27;82799;-44
2022/09/01 03:00:30;;;;;;;;;;;19.40;69.50;;;;;;5046743;28;82947;-45
2022/09/01 03:02:57;;;;;;;;;;;19.40;69.50;;;;;;5046652;28;81850;-46
2022/09/01 03:05:25;;;;;;;;;;;19.40;70.10;;;;;;5046468;27;82381;-44
2022/09/01 03:07:53;;;;;;;;;;;19.30;69.50;;;;;;5046458;28;84474;-44
2022/09/01 03:10:20;;;;;;;;;;;19.30;69.60;;;;;;5048985;28;82030;-43
2022/09/01 03:12:45;;;;;;;;;;;19.40;69.50;;;;;;5046683;28;82131;-45
2022/09/01 03:15:12;;;;;;;;;;;19.30;69.50;;;;;;5047225;28;81423;-45
2022/09/01 03:17:37;;;;;;;;;;;19.30;69.50;;;;;;5046666;27;83382;-44
2022/09/01 03:20:03;;;;;;;;;;;19.30;69.40;;;;;;5046488;28;82868;-44
2022/09/01 03:22:28;;;;;;;;;;;19.30;69.50;;;;;;5045693;28;82899;-43
2022/09/01 03:24:55;;;;;;;;;;;19.30;69.50;;;;;;5046918;27;83264;-48
2022/09/01 03:27:20;;;;;;;;;;;19.30;69.50;;;;;;5046298;28;83009;-45
2022/09/01 03:29:46;;;;;;;;;;;19.30;69.40;;;;;;5046656;28;82559;-43
2022/09/01 03:32:11;;;;;;;;;;;19.30;69.50;;;;;;5048971;28;82304;-43
2022/09/01 03:34:38;;;;;;;;;;;19.30;69.40;;;;;;5046327;28;82070;-46
2022/09/01 03:37:08;;;;;;;;;;;19.20;69.50;;;;;;5046347;27;83888;-46
2022/09/01 03:39:34;;;;;;;;;;;19.20;69.50;;;;;;5046625;28;84430;-45
2022/09/01 03:42:00;;;;;;;;;;;19.20;69.40;;;;;;5046555;28;82044;-46
2022/09/01 03:44:26;;;;;;;;;;;19.20;69.50;;;;;;5046422;28;82983;-46
2022/09/01 03:46:51;;;;;;;;;;;19.20;69.30;;;;;;5045605;28;84004;-45
2022/09/01 03:49:26;;;;;;;;;;;19.20;69.40;;;;;;5045663;28;81959;-43
2022/09/01 03:51:56;;;;;;;;;;;19.20;69.40;;;;;;5048615;27;84293;-46
2022/09/01 03:54:26;;;;;;;;;;;19.20;69.50;;;;;;5045961;27;82058;-46
2022/09/01 03:56:53;;;;;;;;;;;19.10;69.40;;;;;;5045925;27;84402;-44
2022/09/01 03:59:21;;;;;;;;;;;19.10;69.40;;;;;;5045654;28;84519;-46
2022/09/01 04:01:47;;;;;;;;;;;19.10;69.40;;;;;;5045672;28;83082;-42
2022/09/01 04:04:13;;;;;;;;;;;19.10;69.50;;;;;;5046218;27;83971;-46
2022/09/01 04:06:40;;;;;;;;;;;19.10;69.50;;;;;;5045721;28;83426;-45
2022/09/01 04:09:05;;;;;;;;;;;19.10;69.50;;;;;;5045864;28;82061;-47
2022/09/01 04:11:32;;;;;;;;;;;19.10;69.40;;;;;;5045279;27;82860;-45
2022/09/01 04:13:58;;;;;;;;;;;19.10;69.30;;;;;;5048615;28;82935;-45
2022/09/01 04:19:24;;;;;;;;;;;19.00;69.40;;;;;;5043504;28;82203;-43
2022/09/01 04:21:52;;;;;;;;;;;19.00;69.40;;;;;;5045643;28;82094;-44
2022/09/01 04:24:18;;;;;;;;;;;19.00;69.50;;;;;;5045478;27;82775;-44
2022/09/01 04:26:45;;;;;;;;;;;19.00;69.40;;;;;;5045297;28;84333;-45
2022/09/01 04:29:11;;;;;;;;;;;19.00;69.40;;;;;;5045884;28;81366;-43
2022/09/01 04:31:38;;;;;;;;;;;19.00;69.40;;;;;;5045594;27;81982;-45
2022/09/01 04:34:10;;;;;;;;;;;19.00;69.40;;;;;;5045126;28;84109;-45
2022/09/01 04:36:36;;;;;;;;;;;19.00;69.40;;;;;;5047675;28;82834;-45
2022/09/01 04:39:07;;;;;;;;;;;19.00;69.50;;;;;;5045438;28;82134;-44
2022/09/01 04:41:34;;;;;;;;;;;18.90;69.40;;;;;;5045180;28;82038;-43
2022/09/01 04:44:03;;;;;;;;;;;19.00;69.30;;;;;;5045631;28;82516;-44
2022/09/01 04:46:31;;;;;;;;;;;19.00;69.20;;;;;;5044854;28;83495;-43
2022/09/01 04:48:57;;;;;;;;;;;18.90;69.20;;;;;;5045045;28;82059;-44
2022/09/01 04:51:26;;;;;;;;;;;18.90;69.20;;;;;;5045464;28;82378;-43
2022/09/01 04:53:53;;;;;;;;;;;18.90;69.30;;;;;;5045394;28;84112;-47
2022/09/01 04:56:19;;;;;;;;;;;18.90;69.30;;;;;;5044954;28;81931;-43
2022/09/01 04:58:45;;;;;;;;;;;19.00;69.30;;;;;;5047987;27;83893;-45
2022/09/01 05:01:16;;;;;;;;;;;18.90;69.30;;;;;;5044801;28;82899;-44
2022/09/01 05:03:41;;;;;;;;;;;18.90;69.30;;;;;;5045335;27;82432;-43
2022/09/01 05:06:12;;;;;;;;;;;18.90;69.30;;;;;;5045197;28;82932;-45
2022/09/01 05:08:38;;;;;;;;;;;18.90;69.60;;;;;;5044986;28;81880;-44
2022/09/01 05:11:06;;;;;;;;;;;18.90;69.30;;;;;;5045181;28;81980;-45
2022/09/01 05:13:32;;;;;;;;;;;18.90;69.30;;;;;;5046051;27;82115;-46
2022/09/01 05:16:02;;;;;;;;;;;18.90;69.30;;;;;;5048768;28;82005;-44
2022/09/01 05:18:28;;;;;;;;;;;18.90;69.30;;;;;;5048937;27;83961;-44
2022/09/01 05:20:54;;;;;;;;;;;18.90;69.20;;;;;;5051030;28;82894;-45
2022/09/01 05:23:20;;;;;;;;;;;18.90;69.20;;;;;;5048352;28;82435;-44
2022/09/01 05:25:48;;;;;;;;;;;18.90;69.20;;;;;;5047682;28;83020;-44
2022/09/01 05:28:14;;;;;;;;;;;18.90;69.10;;;;;;5048316;28;81949;-46
2022/09/01 05:30:40;;;;;;;;;;;18.90;69.20;;;;;;5048401;27;82514;-45
2022/09/01 05:33:11;;;;;;;;;;;18.90;69.10;;;;;;5048321;28;82829;-44
2022/09/01 05:35:39;;;;;;;;;;;18.90;69.20;;;;;;5048138;28;81949;-45
2022/09/01 05:38:09;;;;;;;;;;;18.90;69.10;;;;;;5048167;27;82397;-45
2022/09/01 05:40:40;;;;;;;;;;;18.90;69.10;;;;;;5048023;28;82899;-42
2022/09/01 05:43:11;;;;;;;;;;;18.90;69.10;;;;;;5051376;28;81764;-45
2022/09/01 05:45:42;;;;;;;;;;;18.90;69.10;;;;;;5047902;28;82972;-43
2022/09/01 05:48:12;;;;;;;;;;;18.90;69.00;;;;;;5047666;28;82134;-43
2022/09/01 05:50:44;;;;;;;;;;;18.90;69.10;;;;;;5047022;27;83819;-45
2022/09/01 05:53:14;;;;;;;;;;;18.90;69.20;;;;;;5047695;28;83439;-46
2022/09/01 05:55:42;;;;;;;;;;;18.90;69.20;;;;;;5047960;28;82252;-45
2022/09/01 05:58:12;;;;;;;;;;;18.90;69.10;;;;;;5047930;27;82281;-46
2022/09/01 06:00:39;;;;;;;;;;;18.90;69.20;;;;;;5047432;28;83411;-43
2022/09/01 06:03:08;;;;;;;;;;;18.90;69.20;;;;;;5050369;28;81928;-44
2022/09/01 06:05:35;;;;;;;;;;;18.90;69.10;;;;;;5047259;28;83843;-43
2022/09/01 06:08:02;;;;;;;;;;;18.90;69.30;;;;;;5047961;28;81258;-45
2022/09/01 06:10:29;;;;;;;;;;;18.90;69.20;;;;;;5047655;27;82911;-45
2022/09/01 06:12:55;;;;;;;;;;;18.90;69.20;;;;;;5047422;28;84378;-44
2022/09/01 06:15:21;;;;;;;;;;;18.90;69.20;;;;;;5046733;28;82963;-44
2022/09/01 06:17:47;;;;;;;;;;;18.90;69.30;;;;;;5047354;27;84003;-43
2022/09/01 06:20:16;;;;;;;;;;;18.90;69.30;;;;;;5047137;28;84344;-45
2022/09/01 06:22:43;;;;;;;;;;;18.90;69.20;;;;;;5047407;28;82180;-47
2022/09/01 06:25:09;;;;;;;;;;;18.90;69.30;;;;;;5049716;27;84043;-43
2022/09/01 06:27:41;;;;;;;;;;;18.90;69.30;;;;;;5047075;28;82028;-45
2022/09/01 06:30:13;;;;;;;;;;;18.90;69.40;;;;;;5047106;27;83812;-43
2022/09/01 06:32:42;;;;;;;;;;;18.90;69.30;;;;;;5047396;28;83971;-46
2022/09/01 06:35:12;;;;;;;;;;;18.90;69.40;;;;;;5047043;28;81870;-46
2022/09/01 06:37:38;;;;;;;;;;;18.90;69.40;;;;;;5047269;28;82375;-47
2022/09/01 06:40:04;;;;;;;;;;;18.90;69.50;;;;;;5046336;28;84035;-43
2022/09/01 06:42:33;;;;;;;;;;;18.90;69.40;;;;;;5046923;28;81919;-43
2022/09/01 06:44:59;;;;;;;;;;;18.90;69.40;;;;;;5046764;28;83432;-44
2022/09/01 06:47:27;;;;;;;;;;;18.90;69.40;;;;;;5049854;28;82971;-45
2022/09/01 06:49:54;;;;;;;;;;;18.90;69.30;;;;;;5046563;28;83891;-46
2022/09/01 06:52:22;;;;;;;;;;;18.90;69.30;;;;;;5046908;28;83084;-45
2022/09/01 06:54:49;;;;;;;;;;;18.90;69.90;;;;;;5046934;28;81951;-45
2022/09/01 06:57:15;;;;;;;;;;;18.90;69.50;;;;;;5047367;27;81527;-44
2022/09/01 06:59:40;;;;;;;;;;;18.90;69.40;;;;;;5046623;28;82978;-45
2022/09/01 07:02:07;;;;;;;;;;;18.90;69.40;;;;;;5046957;28;82000;-45
2022/09/01 07:04:33;;;;;;;;;;;18.90;69.30;;;;;;5046303;27;84258;-43
2022/09/01 07:06:59;;;;;;;;;;;18.90;69.40;;;;;;5046576;28;84433;-45
2022/09/01 07:09:25;;;;;;;;;;;18.90;69.40;;;;;;5049695;28;81904;-44
2022/09/01 07:11:51;;;;;;;;;;;18.90;69.30;;;;;;5046296;28;84249;-45
2022/09/01 07:14:18;;;;;;;;;;;18.90;69.50;;;;;;5046530;28;82034;-45
2022/09/01 07:16:45;;;;;;;;;;;18.90;69.60;;;;;;5046375;28;84058;-45
2022/09/01 07:19:14;;;;;;;;;;;18.90;69.50;;;;;;5046388;28;84493;-46
2022/09/01 07:21:41;;;;;;;;;;;18.90;69.40;;;;;;5046908;28;81333;-44
2022/09/01 07:24:07;;;;;;;;;;;18.90;69.40;;;;;;5046545;27;83394;-43
2022/09/01 07:26:34;;;;;;;;;;;18.90;69.50;;;;;;5046090;28;84350;-44
2022/09/01 07:29:02;;;;;;;;;;;18.90;69.60;;;;;;5044443;28;83059;-44
2022/09/01 07:31:30;;;;;;;;;;;19.00;69.40;;;;;;5048919;27;82455;-44
2022/09/01 07:33:58;;;;;;;;;;;18.90;69.30;;;;;;5046383;28;82579;-44
2022/09/01 07:36:23;;;;;;;;;;;18.90;69.50;;;;;;5045886;28;82010;-42
2022/09/01 07:38:52;;;;;;;;;;;18.90;69.40;;;;;;5046256;28;82122;-46
2022/09/01 07:41:22;;;;;;;;;;;18.90;69.40;;;;;;5046083;28;82110;-43
2022/09/01 07:43:51;;;;;;;;;;;18.90;69.50;;;;;;5046235;27;82415;-47
2022/09/01 07:46:17;;;;;;;;;;;18.90;69.60;;;;;;5046570;28;82287;-45
2022/09/01 07:48:44;;;;;;;;;;;18.90;69.40;;;;;;5046073;28;82030;-45
2022/09/01 07:51:11;;;;;;;;;;;18.90;69.40;;;;;;5048466;27;83619;-46
2022/09/01 07:53:37;;;;;;;;;;;18.90;69.40;;;;;;5045530;28;82780;-43
2022/09/01 07:56:09;;;;;;;;;;;18.90;69.50;;;;;;5045951;28;82486;-45
2022/09/01 07:58:35;;;;;;;;;;;19.00;69.40;;;;;;5045753;28;84409;-46
2022/09/01 08:01:05;;;;;;;;;;;19.00;69.30;;;;;;5045894;28;81965;-45
2022/09/01 08:03:30;;;;;;;;;;;19.00;69.30;;;;;;5045940;27;82402;-45
2022/09/01 08:06:02;;;;;;;;;;;19.00;69.30;;;;;;5046054;28;82970;-44
2022/09/01 08:08:28;;;;;;;;;;;19.00;69.30;;;;;;5046014;28;82037;-46
2022/09/01 08:10:53;;;;;;;;;;;19.00;69.20;;;;;;5046580;27;81586;-45
2022/09/01 08:13:19;;;;;;;;;;;19.00;69.20;;;;;;5048630;28;82019;-46
2022/09/01 08:15:44;;;;;;;;;;;19.00;69.40;;;;;;5045965;28;82429;-45
2022/09/01 08:18:10;;;;;;;;;;;19.00;69.30;;;;;;5045064;28;83697;-43
2022/09/01 08:20:44;;;;;;;;;;;19.00;69.10;;;;;;5045991;28;82295;-43
2022/09/01 08:23:10;;;;;;;;;;;19.00;69.40;;;;;;5045562;27;85546;-45
2022/09/01 08:25:36;;;;;;;;;;;19.00;69.30;;;;;;5045763;28;82843;-47
2022/09/01 08:28:02;;;;;;;;;;;19.00;69.20;;;;;;5045775;28;81965;-43
2022/09/01 08:30:29;;;;;;;;;;;19.00;69.30;;;;;;5045494;27;83820;-45
2022/09/01 08:32:55;;;;;;;;;;;19.10;69.10;;;;;;5045526;28;83452;-44
2022/09/01 08:35:20;;;;;;;;;;;19.00;69.10;;;;;;5048976;28;81428;-44
2022/09/01 08:37:46;;;;;;;;;;;19.00;69.10;;;;;;5045423;28;82515;-44
2022/09/01 08:40:14;;;;;;;;;;;19.10;69.20;;;;;;5045787;28;81950;-45
2022/09/01 08:42:39;;;;;;;;;;;19.00;69.60;;;;;;5045159;27;82886;-44
2022/09/01 08:45:08;;;;;;;;;;;19.10;69.30;;;;;;5045341;28;82609;-43
2022/09/01 08:47:34;;;;;;;;;;;19.10;69.50;;;;;;5045541;27;82012;-45
2022/09/01 08:50:00;;;;;;;;;;;19.10;69.20;;;;;;5048598;27;82242;-46
2022/09/01 08:52:33;;;;;;;;;;;19.10;69.10;;;;;;5048436;28;84299;-42
2022/09/01 08:55:04;;;;;;;;;;;19.10;69.40;;;;;;5048964;28;82000;-43
2022/09/01 08:57:34;;;;;;;;;;;19.10;69.60;;;;;;5051496;28;82025;-46
2022/09/01 09:00:00;;;;;;;;;;;19.10;69.70;;;;;;5049510;28;81387;-43
2022/09/01 09:02:29;;;;;;;;;;;19.10;69.90;;;;;;5048760;27;82208;-46
2022/09/01 09:04:54;;;;;;;;;;;19.10;69.80;;;;;;5048417;28;83080;-45
2022/09/01 09:07:29;;;;;;;;;;;19.20;69.80;;;;;;5048259;28;82911;-43
2022/09/01 09:10:04;;;;;;;;;;;19.20;69.60;;;;;;5048974;27;83159;-44
2022/09/01 09:12:45;;;;;;;;;;;19.20;70.00;;;;;;5048844;28;83029;-48
2022/09/01 09:15:25;;;;;;;;;;;19.20;69.20;;;;;;5048734;28;82075;-46
2022/09/01 09:17:58;;;;;;;;;;;19.20;69.30;;;;;;5048768;27;82058;-45
2022/09/01 09:20:24;;;;;;;;;;;19.20;69.30;;;;;;5051095;28;84620;-44
2022/09/01 09:22:50;;;;;;;;;;;19.20;69.50;;;;;;5048464;27;83506;-44
2022/09/01 09:25:16;;;;;;;;;;;19.20;69.50;;;;;;5048829;28;82671;-46
2022/09/01 09:27:43;;;;;;;;;;;19.30;69.20;;;;;;5048582;28;81978;-46
2022/09/01 09:30:11;;;;;;;;;;;19.30;69.20;;;;;;5048185;28;82409;-43
2022/09/01 09:32:43;;;;;;;;;;;19.30;69.50;;;;;;5047129;28;84639;-45
2022/09/01 09:35:41;;;;;;;;;;;19.30;69.20;;;;;;5048262;28;82081;-44
2022/09/01 09:38:19;;;;;;;;;;;19.30;69.40;;;;;;5035352;27;82037;-46
2022/09/01 09:41:02;;;;;;;;;;;19.30;69.10;;;;;;5047925;28;82225;-45
2022/09/01 09:43:30;;;;;;;;;;;19.30;69.40;;;;;;5050818;28;82074;-46
2022/09/01 09:46:15;;;;;;;;;;;19.30;69.30;;;;;;5048133;28;82392;-45
2022/09/01 09:48:41;;;;;;;;;;;19.30;69.00;;;;;;5047529;28;82193;-44
2022/09/01 09:51:18;;;;;;;;;;;19.40;69.00;;;;;;5048211;28;82357;-44
2022/09/01 09:53:44;;;;;;;;;;;19.40;69.20;;;;;;5047676;28;84319;-45
2022/09/01 09:56:21;;;;;;;;;;;19.40;69.20;;;;;;5048084;28;82497;-46
2022/09/01 09:58:48;;;;;;;;;;;19.40;69.10;;;;;;5046558;27;83935;-46
2022/09/01 10:01:27;;;;;;;;;;;19.40;69.20;;;;;;5047927;28;82193;-44
2022/09/01 10:03:57;;;;;;;;;;;19.50;69.20;;;;;;5050846;28;81762;-45
2022/09/01 10:06:40;;;;;;;;;;;19.50;69.20;;;;;;5047509;28;85077;-46
2022/09/01 10:09:08;;;;;;;;;;;19.50;69.20;;;;;;5047855;28;82241;-45
2022/09/01 10:11:38;;;;;;;;;;;19.50;69.40;;;;;;5047670;27;84116;-45
2022/09/01 10:14:05;;;;;;;;;;;19.50;69.10;;;;;;5047518;28;83165;-44
2022/09/01 10:16:36;;;;;;;;;;;19.50;69.50;;;;;;5048330;28;81224;-45
2022/09/01 10:19:01;;;;;;;;;;;19.50;69.30;;;;;;5047461;27;82913;-46
2022/09/01 10:21:31;;;;;;;;;;;19.60;69.40;;;;;;5047382;28;82911;-44
2022/09/01 10:23:57;;;;;;;;;;;19.60;69.40;;;;;;5046522;28;83057;-44
2022/09/01 10:26:34;;;;;;;;;;;19.60;69.50;;;;;;5049969;27;83423;-45
2022/09/01 10:29:05;;;;;;;;;;;19.60;69.30;;;;;;5047463;28;82840;-46
2022/09/01 10:31:31;;;;;;;;;;;19.60;69.50;;;;;;5047142;28;84023;-45
2022/09/01 10:33:57;;;;;;;;;;;19.70;69.40;;;;;;5047200;28;82990;-46
2022/09/01 10:36:22;;;;;;;;;;;19.70;69.30;;;;;;5047454;28;82109;-42
2022/09/01 10:38:48;;;;;;;;;;;19.70;69.30;;;;;;5047317;27;83144;-46
2022/09/01 10:41:34;;;;;;;;;;;19.80;69.50;;;;;;5047210;28;83744;-43
2022/09/01 10:44:10;;;;;;;;;;;19.80;69.40;;;;;;5042087;28;83938;-44
2022/09/01 10:46:36;;;;;;;;;;;19.80;69.30;;;;;;5047519;28;82593;-45
2022/09/01 10:49:11;;;;;;;;;;;19.80;69.40;;;;;;5048069;28;85468;-43
2022/09/01 10:51:41;;;;;;;;;;;19.80;69.60;;;;;;5047134;27;82517;-43
2022/09/01 10:54:07;;;;;;;;;;;19.80;69.40;;;;;;5046933;28;83098;-45
2022/09/01 10:56:38;;;;;;;;;;;19.90;69.50;;;;;;5047061;28;82140;-44
2022/09/01 10:59:05;;;;;;;;;;;19.90;69.40;;;;;;5047195;27;82272;-43
2022/09/01 11:01:57;;;;;;;;;;;19.90;69.50;;;;;;5046782;28;82465;-43
2022/09/01 11:04:43;;;;;;;;;;;20.00;69.40;;;;;;5045231;28;82025;-43
2022/09/01 11:07:17;;;;;;;;;;;20.00;69.40;;;;;;5042760;28;84152;-46
2022/09/01 11:09:44;;;;;;;;;;;20.00;69.60;;;;;;5046861;28;82970;-45
2022/09/01 11:12:16;;;;;;;;;;;20.00;69.60;;;;;;5048451;28;82039;-44
2022/09/01 11:14:47;;;;;;;;;;;20.00;69.60;;;;;;5045314;28;84585;-45
2022/09/01 11:17:18;;;;;;;;;;;20.10;69.60;;;;;;5046736;28;82050;-44
2022/09/01 11:19:54;;;;;;;;;;;20.10;69.50;;;;;;5046663;27;82053;-44
2022/09/01 11:22:25;;;;;;;;;;;20.10;69.70;;;;;;5046207;28;83609;-44
2022/09/01 11:25:03;;;;;;;;;;;20.10;69.60;;;;;;5046607;28;82031;-43
2022/09/01 11:27:47;;;;;;;;;;;20.20;69.80;;;;;;5046350;27;82515;-47
2022/09/01 11:30:22;;;;;;;;;;;20.20;69.60;;;;;;5046306;28;83015;-44
2022/09/01 11:32:56;;;;;;;;;;;20.20;69.50;;;;;;5046799;28;81316;-44
2022/09/01 11:35:23;;;;;;;;;;;20.30;69.50;;;;;;5048645;27;84234;-44
2022/09/01 11:37:50;;;;;;;;;;;20.30;69.70;;;;;;5046230;28;82061;-44
2022/09/01 11:40:23;;;;;;;;;;;20.30;69.60;;;;;;5045687;27;82881;-44
2022/09/01 11:42:51;;;;;;;;;;;20.30;69.60;;;;;;5046210;28;82933;-46
2022/09/01 11:45:22;;;;;;;;;;;20.30;69.50;;;;;;5046081;28;82115;-47
2022/09/01 11:47:53;;;;;;;;;;;20.40;69.60;;;;;;5046114;27;82397;-44
2022/09/01 11:50:20;;;;;;;;;;;20.40;69.50;;;;;;5046040;28;82961;-44
2022/09/01 11:52:54;;;;;;;;;;;20.40;69.50;;;;;;5046394;28;82859;-46
2022/09/01 11:55:28;;;;;;;;;;;20.50;69.60;;;;;;5045997;28;82357;-46
2022/09/01 11:57:53;;;;;;;;;;;20.40;69.50;;;;;;5049272;28;82221;-46
2022/09/01 12:00:25;;;;;;;;;;;20.50;69.60;;;;;;5046111;28;82224;-44
2022/09/01 12:02:51;;;;;;;;;;;20.50;69.60;;;;;;5045767;28;83055;-44
2022/09/01 12:05:23;;;;;;;;;;;20.50;69.60;;;;;;5045499;28;83080;-46
2022/09/01 12:07:49;;;;;;;;;;;20.60;69.70;;;;;;5045713;27;85298;-43
2022/09/01 12:10:19;;;;;;;;;;;20.60;69.60;;;;;;5045732;28;82942;-46
2022/09/01 12:12:45;;;;;;;;;;;20.60;69.50;;;;;;5045818;28;82044;-43
2022/09/01 12:15:19;;;;;;;;;;;20.60;69.50;;;;;;5045732;27;82516;-45
2022/09/01 12:17:44;;;;;;;;;;;20.60;69.50;;;;;;5048370;28;82092;-44
2022/09/01 12:20:39;;;;;;;;;;;20.60;69.40;;;;;;5045850;28;83302;-45
2022/09/01 12:23:31;;;;;;;;;;;20.70;69.60;;;;;;5047232;27;83730;-43
2022/09/01 12:26:01;;;;;;;;;;;20.70;69.40;;;;;;5047728;28;81876;-46
2022/09/01 12:28:31;;;;;;;;;;;20.70;69.50;;;;;;5048925;27;82109;-43
2022/09/01 12:30:59;;;;;;;;;;;20.80;69.60;;;;;;5048088;28;85778;-46
2022/09/01 12:33:25;;;;;;;;;;;20.80;69.50;;;;;;5049064;28;82139;-46
2022/09/01 12:35:50;;;;;;;;;;;20.80;69.40;;;;;;5049452;27;82376;-45
2022/09/01 12:38:19;;;;;;;;;;;20.80;69.50;;;;;;5048886;28;82961;-45
2022/09/01 12:40:46;;;;;;;;;;;20.80;69.50;;;;;;5051955;28;82002;-46
2022/09/01 12:43:26;;;;;;;;;;;20.90;69.40;;;;;;5049134;28;83057;-45
2022/09/01 12:45:51;;;;;;;;;;;20.90;69.60;;;;;;5049263;28;81989;-45
2022/09/01 12:48:29;;;;;;;;;;;20.90;69.40;;;;;;5048588;27;84163;-46
2022/09/01 12:50:59;;;;;;;;;;;20.90;69.40;;;;;;5048635;28;82152;-45
2022/09/01 12:53:27;;;;;;;;;;;20.90;69.40;;;;;;5049409;28;82090;-43
2022/09/01 12:55:54;;;;;;;;;;;21.00;69.30;;;;;;5048170;28;82818;-44
2022/09/01 12:58:21;;;;;;;;;;;21.00;69.30;;;;;;5048764;28;82985;-44
2022/09/01 13:01:03;;;;;;;;;;;21.00;69.30;;;;;;5048852;28;82023;-46
2022/09/01 13:03:29;;;;;;;;;;;21.00;69.30;;;;;;5050954;27;83902;-44
2022/09/01 13:05:57;;;;;;;;;;;21.00;69.20;;;;;;5048712;28;81940;-46
2022/09/01 13:08:27;;;;;;;;;;;21.10;69.20;;;;;;5048559;27;83898;-44
2022/09/01 13:11:01;;;;;;;;;;;21.10;69.20;;;;;;5044869;28;87997;-44
2022/09/01 13:13:27;;;;;;;;;;;21.10;69.20;;;;;;5045798;28;86275;-45
2022/09/01 13:15:54;;;;;;;;;;;21.20;69.30;;;;;;5044913;27;88316;-45
2022/09/01 13:18:21;;;;;;;;;;;21.20;69.30;;;;;;5044872;28;88067;-46
2022/09/01 13:20:47;;;;;;;;;;;21.20;69.30;;;;;;5044619;28;88042;-45
2022/09/01 13:23:13;;;;;;;;;;;21.20;69.30;;;;;;5045457;28;87522;-46
2022/09/01 13:25:39;;;;;;;;;;;21.20;69.30;;;;;;5047563;28;88365;-46
2022/09/01 13:28:06;;;;;;;;;;;21.30;69.40;;;;;;5044981;28;87444;-46
2022/09/01 13:30:32;;;;;;;;;;;21.30;69.30;;;;;;5044122;28;89376;-43
2022/09/01 13:32:58;;;;;;;;;;;21.30;69.30;;;;;;5044959;28;87588;-46
2022/09/01 13:35:24;;;;;;;;;;;21.30;69.20;;;;;;5044064;27;88132;-46
2022/09/01 13:37:49;;;;;;;;;;;21.40;69.30;;;;;;5045227;28;87358;-46
2022/09/01 13:40:16;;;;;;;;;;;21.40;69.20;;;;;;5045170;28;87022;-43
2022/09/01 13:42:42;;;;;;;;;;;21.40;69.20;;;;;;5044944;28;87456;-44
2022/09/01 13:45:09;;;;;;;;;;;21.40;69.20;;;;;;5043618;28;89060;-45
2022/09/01 13:47:34;;;;;;;;;;;21.40;69.20;;;;;;5047535;28;87128;-46
2022/09/01 13:50:00;;;;;;;;;;;21.40;69.20;;;;;;5043911;28;88569;-43
2022/09/01 13:52:25;;;;;;;;;;;21.40;69.10;;;;;;5044683;28;87069;-44
2022/09/01 13:54:51;;;;;;;;;;;21.40;69.20;;;;;;5044706;28;87378;-44
2022/09/01 13:57:17;;;;;;;;;;;21.40;69.20;;;;;;5044523;28;88099;-44
2022/09/01 13:59:43;;;;;;;;;;;21.40;69.10;;;;;;5044539;28;87122;-46
2022/09/01 14:02:09;;;;;;;;;;;21.40;69.10;;;;;;5045126;28;87828;-43
2022/09/01 14:04:35;;;;;;;;;;;21.50;69.20;;;;;;5044276;28;87926;-43
2022/09/01 14:07:00;;;;;;;;;;;21.50;69.10;;;;;;5044219;28;87621;-46
2022/09/01 14:09:26;;;;;;;;;;;21.50;69.00;;;;;;5046551;28;88046;-45
2022/09/01 14:11:52;;;;;;;;;;;21.50;69.00;;;;;;5044491;28;87632;-44
2022/09/01 14:14:18;;;;;;;;;;;21.50;69.00;;;;;;5044005;28;88073;-43
2022/09/01 14:16:44;;;;;;;;;;;21.50;69.00;;;;;;5044025;28;87142;-43
2022/09/01 14:19:10;;;;;;;;;;;21.60;69.10;;;;;;5043964;28;87099;-45
2022/09/01 14:21:36;;;;;;;;;;;21.60;69.10;;;;;;5044292;27;87016;-44
2022/09/01 14:24:02;;;;;;;;;;;21.60;69.10;;;;;;5043647;28;89424;-46
2022/09/01 14:26:27;;;;;;;;;;;21.60;69.10;;;;;;5044491;28;86405;-45
2022/09/01 14:28:53;;;;;;;;;;;21.70;69.00;;;;;;5046370;27;86976;-48